»·PEaware :: N714TW KSAN-KONT

N714TW :: KSAN-KONT

FLIGHT INFORMATION

Flight Status: Arrived
Operator: Privately registered:
United States
More flights under this callsign
Pilot: Peter S. (23284)
Aircraft: BEECH AIRCRAFT BARON
(BE58)
More flights by this aircraft type
Origin: KSAN San Diego Intl-Lindbergh
United States
Destination: KONT Ontario Intl
United States
More flights between these airports :: More routes between these airports
Route: OCN V23 DANAH V363 POXKU V8 PDZ
File this flight plan on PilotEdge
Remarks: TEC route SANP19
Altitude:
(Current/Filed)
6,000ft
Speed:
(Current/Filed)
150kts
Departed: 05-Jan-20 01:25 PM
Arrived: 05-Jan-20 02:08 PM
Distance/Time
Traveled:
82nm/0:43
Distance/Time
To Go:
Arrived

Flight Plot

Page will automatically refresh every two minutes.


Map Options




Map Legend


Flown Route
Filed Route
Departure Airport
Arrival Airport
Navaid (VOR, NDB)
Fix

Horizontal Profiles

Position Reports

Time Latitude Longitude Heading Altitude Ground
Speed
05-Jan-20 13:07 32.732088 -117.176568 194 21ft 0kts
05-Jan-20 13:08 32.732088 -117.176568 194 21ft 0kts
05-Jan-20 13:09 32.732088 -117.176568 194 21ft 0kts
05-Jan-20 13:10 32.732088 -117.176569 194 21ft 0kts
05-Jan-20 13:11 32.732088 -117.176569 194 21ft 0kts
05-Jan-20 13:12 32.732088 -117.176569 194 21ft 0kts
05-Jan-20 13:13 32.732088 -117.176569 194 21ft 0kts
05-Jan-20 13:14 32.732088 -117.176569 194 21ft 0kts
05-Jan-20 13:15 32.732088 -117.176569 194 21ft 0kts
05-Jan-20 13:16 32.732088 -117.176569 194 21ft 0kts
05-Jan-20 13:17 32.732088 -117.176569 194 21ft 0kts
05-Jan-20 13:18 32.732088 -117.176568 193 21ft 0kts
05-Jan-20 13:19 32.732034 -117.176586 195 21ft 0kts
05-Jan-20 13:20 32.732028 -117.176587 193 21ft 0kts
05-Jan-20 13:21 32.732028 -117.176587 193 21ft 0kts
05-Jan-20 13:22 32.730885 -117.175429 164 21ft 0kts
05-Jan-20 13:23 32.730852 -117.175421 171 21ft 3kts
05-Jan-20 13:24 32.734356 -117.193162 286 265ft 121kts
05-Jan-20 13:25 32.757218 -117.222111 321 1838ft 129kts
05-Jan-20 13:26 32.786896 -117.248291 320 3096ft 135kts
05-Jan-20 13:27 32.816448 -117.276463 319 4349ft 138kts
05-Jan-20 13:28 32.847075 -117.304400 318 5501ft 139kts
05-Jan-20 13:29 32.881705 -117.331859 337 5971ft 167kts
05-Jan-20 13:30 32.928786 -117.347309 340 5914ft 176kts
05-Jan-20 13:31 32.977351 -117.359341 346 5864ft 175kts
05-Jan-20 13:32 33.023598 -117.369525 345 5965ft 164kts
05-Jan-20 13:33 33.069156 -117.379622 345 5960ft 166kts
05-Jan-20 13:34 33.114660 -117.389691 344 5960ft 167kts
05-Jan-20 13:35 33.161539 -117.400078 344 5960ft 168kts
05-Jan-20 13:36 33.208899 -117.410580 344 5960ft 169kts
05-Jan-20 13:37 33.251595 -117.430196 312 5991ft 159kts
05-Jan-20 13:38 33.284060 -117.467931 311 5967ft 162kts
05-Jan-20 13:39 33.316715 -117.506102 311 5961ft 163kts
05-Jan-20 13:40 33.349412 -117.544248 311 5960ft 163kts
05-Jan-20 13:41 33.382221 -117.582557 311 5959ft 163kts
05-Jan-20 13:42 33.415525 -117.621495 311 5955ft 164kts
05-Jan-20 13:43 33.449581 -117.659718 327 5940ft 169kts
05-Jan-20 13:44 33.497371 -117.674569 343 5963ft 174kts
05-Jan-20 13:45 33.545591 -117.688017 341 5968ft 173kts
05-Jan-20 13:46 33.593948 -117.702764 340 5971ft 174kts
05-Jan-20 13:47 33.642324 -117.717525 341 5975ft 173kts
05-Jan-20 13:48 33.689255 -117.731857 341 5971ft 170kts
05-Jan-20 13:49 33.735762 -117.746079 341 5972ft 168kts
05-Jan-20 13:50 33.782392 -117.760362 341 5982ft 167kts
05-Jan-20 13:51 33.829070 -117.774557 345 5978ft 166kts
05-Jan-20 13:52 33.863720 -117.741764 69 6026ft 176kts
05-Jan-20 13:53 33.878520 -117.683919 69 5987ft 176kts
05-Jan-20 13:54 33.893312 -117.626505 69 5980ft 175kts
05-Jan-20 13:55 33.908001 -117.569540 69 5977ft 175kts
05-Jan-20 13:56 33.922716 -117.512955 62 5925ft 174kts
05-Jan-20 13:57 33.949723 -117.460635 57 4929ft 190kts
05-Jan-20 13:58 33.972382 -117.412750 58 4993ft 140kts
05-Jan-20 13:59 33.993505 -117.366645 60 5092ft 174kts
05-Jan-20 14:00 34.032860 -117.350923 329 4624ft 164kts
05-Jan-20 14:01 34.055979 -117.388207 269 4276ft 130kts
05-Jan-20 14:02 34.054894 -117.433531 270 3622ft 133kts
05-Jan-20 14:03 34.054631 -117.479212 270 2672ft 131kts
05-Jan-20 14:04 34.054780 -117.523047 269 1922ft 122kts
05-Jan-20 14:05 34.054912 -117.558765 267 1383ft 89kts
05-Jan-20 14:06 34.054934 -117.588878 269 946ft 65kts
05-Jan-20 14:07 34.054131 -117.594344 241 946ft 0kts
05-Jan-20 14:08 34.054131 -117.594344 241 946ft 0kts
05-Jan-20 14:09 34.054131 -117.594344 241 946ft 0kts
05-Jan-20 14:10 34.054003 -117.594626 246 946ft 10kts
05-Jan-20 14:11 34.053850 -117.603401 270 946ft 30kts
05-Jan-20 14:12 34.053016 -117.610117 277 946ft 0kts
05-Jan-20 14:13 34.053016 -117.610117 277 946ft 0kts

Navigation Log

Ident Type
Flight plan parsing failed, navigation log unavailable